sensor_id;sensor_type;location;lat;lon;timestamp;temperature;humidity
50606;DHT22;36557;53.572;10.170;2023-09-12T00:00:54;20.30;99.90
50606;DHT22;36557;53.572;10.170;2023-09-12T00:03:21;20.30;99.90
50606;DHT22;36557;53.572;10.170;2023-09-12T00:05:57;20.30;99.90
50606;DHT22;36557;53.572;10.170;2023-09-12T00:08:24;20.30;99.90
50606;DHT22;36557;53.572;10.170;2023-09-12T00:11:04;20.30;99.90
50606;DHT22;36557;53.572;10.170;2023-09-12T00:13:30;20.40;99.90
50606;DHT22;36557;53.572;10.170;2023-09-12T00:15:57;20.30;99.90
50606;DHT22;36557;53.572;10.170;2023-09-12T00:18:23;20.40;99.90
50606;DHT22;36557;53.572;10.170;2023-09-12T00:20:50;20.30;99.90
50606;DHT22;36557;53.572;10.170;2023-09-12T00:23:17;20.20;99.90
50606;DHT22;36557;53.572;10.170;2023-09-12T00:25:43;20.00;99.90
50606;DHT22;36557;53.572;10.170;2023-09-12T00:28:09;20.00;99.90
50606;DHT22;36557;53.572;10.170;2023-09-12T00:30:34;19.90;99.90
50606;DHT22;36557;53.572;10.170;2023-09-12T00:33:00;20.00;99.90
50606;DHT22;36557;53.572;10.170;2023-09-12T00:35:26;19.90;99.90
50606;DHT22;36557;53.572;10.170;2023-09-12T00:37:51;20.00;99.90
50606;DHT22;36557;53.572;10.170;2023-09-12T00:40:17;19.90;99.90
50606;DHT22;36557;53.572;10.170;2023-09-12T00:42:42;20.00;99.90
50606;DHT22;36557;53.572;10.170;2023-09-12T00:45:08;20.00;99.90
50606;DHT22;36557;53.572;10.170;2023-09-12T00:47:35;19.80;99.90
50606;DHT22;36557;53.572;10.170;2023-09-12T00:50:02;19.80;99.90
50606;DHT22;36557;53.572;10.170;2023-09-12T00:52:31;19.80;99.90
50606;DHT22;36557;53.572;10.170;2023-09-12T00:54:58;19.80;99.90
50606;DHT22;36557;53.572;10.170;2023-09-12T00:57:24;19.70;99.90
50606;DHT22;36557;53.572;10.170;2023-09-12T00:59:51;19.80;99.90
50606;DHT22;36557;53.572;10.170;2023-09-12T01:02:20;19.90;99.90
50606;DHT22;36557;53.572;10.170;2023-09-12T01:04:47;19.80;99.90
50606;DHT22;36557;53.572;10.170;2023-09-12T01:07:12;19.90;99.90
50606;DHT22;36557;53.572;10.170;2023-09-12T01:09:39;19.90;99.90
50606;DHT22;36557;53.572;10.170;2023-09-12T01:12:06;19.70;99.90
50606;DHT22;36557;53.572;10.170;2023-09-12T01:14:32;19.80;99.90
50606;DHT22;36557;53.572;10.170;2023-09-12T01:16:58;19.70;99.90
50606;DHT22;36557;53.572;10.170;2023-09-12T01:19:25;19.70;99.90
50606;DHT22;36557;53.572;10.170;2023-09-12T01:22:09;19.70;99.90
50606;DHT22;36557;53.572;10.170;2023-09-12T01:27:40;19.80;99.90
50606;DHT22;36557;53.572;10.170;2023-09-12T01:30:08;19.80;99.90
50606;DHT22;36557;53.572;10.170;2023-09-12T01:32:35;19.90;99.90
50606;DHT22;36557;53.572;10.170;2023-09-12T01:35:01;19.90;99.90
50606;DHT22;36557;53.572;10.170;2023-09-12T01:37:31;19.90;99.90
50606;DHT22;36557;53.572;10.170;2023-09-12T01:39:57;19.80;99.90
50606;DHT22;36557;53.572;10.170;2023-09-12T01:42:24;19.90;99.90
50606;DHT22;36557;53.572;10.170;2023-09-12T01:44:55;19.90;99.90
50606;DHT22;36557;53.572;10.170;2023-09-12T01:47:22;19.80;99.90
50606;DHT22;36557;53.572;10.170;2023-09-12T01:49:52;19.80;99.90
50606;DHT22;36557;53.572;10.170;2023-09-12T01:52:19;19.90;99.90
50606;DHT22;36557;53.572;10.170;2023-09-12T01:54:47;19.80;99.90
50606;DHT22;36557;53.572;10.170;2023-09-12T01:57:13;19.80;99.90
50606;DHT22;36557;53.572;10.170;2023-09-12T01:59:40;19.90;99.90
50606;DHT22;36557;53.572;10.170;2023-09-12T02:02:05;19.80;99.90
50606;DHT22;36557;53.572;10.170;2023-09-12T02:04:32;19.80;99.90
50606;DHT22;36557;53.572;10.170;2023-09-12T02:06:58;19.80;99.90
50606;DHT22;36557;53.572;10.170;2023-09-12T02:09:24;19.60;99.90
50606;DHT22;36557;53.572;10.170;2023-09-12T02:11:51;19.60;99.90
50606;DHT22;36557;53.572;10.170;2023-09-12T02:14:16;19.80;99.90
50606;DHT22;36557;53.572;10.170;2023-09-12T02:16:43;19.70;99.90
50606;DHT22;36557;53.572;10.170;2023-09-12T02:19:09;19.90;99.90
50606;DHT22;36557;53.572;10.170;2023-09-12T02:21:35;19.60;99.90
50606;DHT22;36557;53.572;10.170;2023-09-12T02:24:00;19.60;99.90
50606;DHT22;36557;53.572;10.170;2023-09-12T02:26:26;19.60;99.90
50606;DHT22;36557;53.572;10.170;2023-09-12T02:28:52;19.50;99.90
50606;DHT22;36557;53.572;10.170;2023-09-12T02:31:17;19.40;99.90
50606;DHT22;36557;53.572;10.170;2023-09-12T02:33:45;19.50;99.90
50606;DHT22;36557;53.572;10.170;2023-09-12T02:36:10;19.50;99.90
50606;DHT22;36557;53.572;10.170;2023-09-12T02:38:36;19.40;99.90
50606;DHT22;36557;53.572;10.170;2023-09-12T02:41:02;19.50;99.90
50606;DHT22;36557;53.572;10.170;2023-09-12T02:43:28;19.40;99.90
50606;DHT22;36557;53.572;10.170;2023-09-12T02:45:54;19.50;99.90
50606;DHT22;36557;53.572;10.170;2023-09-12T02:48:20;19.40;99.90
50606;DHT22;36557;53.572;10.170;2023-09-12T02:50:45;19.50;99.90
50606;DHT22;36557;53.572;10.170;2023-09-12T02:53:11;19.50;99.90
50606;DHT22;36557;53.572;10.170;2023-09-12T02:55:41;19.60;99.90
50606;DHT22;36557;53.572;10.170;2023-09-12T02:58:07;19.60;99.90
50606;DHT22;36557;53.572;10.170;2023-09-12T03:00:32;19.70;99.90
50606;DHT22;36557;53.572;10.170;2023-09-12T03:03:02;19.70;99.90
50606;DHT22;36557;53.572;10.170;2023-09-12T03:05:28;19.70;99.90
50606;DHT22;36557;53.572;10.170;2023-09-12T03:07:54;19.60;99.90
50606;DHT22;36557;53.572;10.170;2023-09-12T03:10:19;19.50;99.90
50606;DHT22;36557;53.572;10.170;2023-09-12T03:12:45;19.60;99.90
50606;DHT22;36557;53.572;10.170;2023-09-12T03:15:11;19.50;99.90
50606;DHT22;36557;53.572;10.170;2023-09-12T03:17:37;19.50;99.90
50606;DHT22;36557;53.572;10.170;2023-09-12T03:20:02;19.60;99.90
50606;DHT22;36557;53.572;10.170;2023-09-12T03:22:32;19.60;99.90
50606;DHT22;36557;53.572;10.170;2023-09-12T03:24:59;19.60;99.90
50606;DHT22;36557;53.572;10.170;2023-09-12T03:27:25;19.60;99.90
50606;DHT22;36557;53.572;10.170;2023-09-12T03:29:51;19.50;99.90
50606;DHT22;36557;53.572;10.170;2023-09-12T03:32:16;19.40;99.90
50606;DHT22;36557;53.572;10.170;2023-09-12T03:34:42;19.50;99.90
50606;DHT22;36557;53.572;10.170;2023-09-12T03:37:08;19.50;99.90
50606;DHT22;36557;53.572;10.170;2023-09-12T03:39:34;19.40;99.90
50606;DHT22;36557;53.572;10.170;2023-09-12T03:41:59;19.50;99.90
50606;DHT22;36557;53.572;10.170;2023-09-12T03:44:25;19.60;99.90
50606;DHT22;36557;53.572;10.170;2023-09-12T03:46:51;19.60;99.90
50606;DHT22;36557;53.572;10.170;2023-09-12T03:49:16;19.40;99.90
50606;DHT22;36557;53.572;10.170;2023-09-12T03:51:42;19.40;99.90
50606;DHT22;36557;53.572;10.170;2023-09-12T03:54:07;19.50;99.90
50606;DHT22;36557;53.572;10.170;2023-09-12T03:56:33;19.60;99.90
50606;DHT22;36557;53.572;10.170;2023-09-12T03:58:59;19.50;99.90
50606;DHT22;36557;53.572;10.170;2023-09-12T04:01:25;19.60;99.90
50606;DHT22;36557;53.572;10.170;2023-09-12T04:03:51;19.60;99.90
50606;DHT22;36557;53.572;10.170;2023-09-12T04:06:17;19.60;99.90
50606;DHT22;36557;53.572;10.170;2023-09-12T04:08:42;19.50;99.90
50606;DHT22;36557;53.572;10.170;2023-09-12T04:11:08;19.40;99.90
50606;DHT22;36557;53.572;10.170;2023-09-12T04:13:34;19.50;99.90
50606;DHT22;36557;53.572;10.170;2023-09-12T04:15:59;19.50;99.90
50606;DHT22;36557;53.572;10.170;2023-09-12T04:18:25;19.50;99.90
50606;DHT22;36557;53.572;10.170;2023-09-12T04:20:51;19.40;99.90
50606;DHT22;36557;53.572;10.170;2023-09-12T04:23:17;19.60;99.90
50606;DHT22;36557;53.572;10.170;2023-09-12T04:25:43;19.50;99.90
50606;DHT22;36557;53.572;10.170;2023-09-12T04:28:11;19.50;99.90
50606;DHT22;36557;53.572;10.170;2023-09-12T04:30:36;19.50;99.90
50606;DHT22;36557;53.572;10.170;2023-09-12T04:33:02;19.30;99.90
50606;DHT22;36557;53.572;10.170;2023-09-12T04:35:28;19.40;99.90
50606;DHT22;36557;53.572;10.170;2023-09-12T04:37:54;19.30;99.90
50606;DHT22;36557;53.572;10.170;2023-09-12T04:40:20;19.30;99.90
50606;DHT22;36557;53.572;10.170;2023-09-12T04:42:46;19.40;99.90
50606;DHT22;36557;53.572;10.170;2023-09-12T04:45:12;19.30;99.90
50606;DHT22;36557;53.572;10.170;2023-09-12T04:47:37;19.30;99.90
50606;DHT22;36557;53.572;10.170;2023-09-12T04:50:03;19.10;99.90
50606;DHT22;36557;53.572;10.170;2023-09-12T04:52:29;19.30;99.90
50606;DHT22;36557;53.572;10.170;2023-09-12T04:54:55;19.20;99.90
50606;DHT22;36557;53.572;10.170;2023-09-12T04:57:20;19.20;99.90
50606;DHT22;36557;53.572;10.170;2023-09-12T04:59:46;19.40;99.90
50606;DHT22;36557;53.572;10.170;2023-09-12T05:02:11;19.20;99.90
50606;DHT22;36557;53.572;10.170;2023-09-12T05:04:37;19.30;99.90
50606;DHT22;36557;53.572;10.170;2023-09-12T05:07:03;19.40;99.90
50606;DHT22;36557;53.572;10.170;2023-09-12T05:09:29;19.30;99.90
50606;DHT22;36557;53.572;10.170;2023-09-12T05:11:54;19.40;99.90
50606;DHT22;36557;53.572;10.170;2023-09-12T05:14:20;19.20;99.90
50606;DHT22;36557;53.572;10.170;2023-09-12T05:16:46;19.30;99.90
50606;DHT22;36557;53.572;10.170;2023-09-12T05:19:11;19.30;99.90
50606;DHT22;36557;53.572;10.170;2023-09-12T05:21:37;19.30;99.90
50606;DHT22;36557;53.572;10.170;2023-09-12T05:24:03;19.40;99.90
50606;DHT22;36557;53.572;10.170;2023-09-12T05:26:28;19.20;99.90
50606;DHT22;36557;53.572;10.170;2023-09-12T05:28:54;19.30;99.90
50606;DHT22;36557;53.572;10.170;2023-09-12T05:31:20;19.20;99.90
50606;DHT22;36557;53.572;10.170;2023-09-12T05:33:46;19.30;99.90
50606;DHT22;36557;53.572;10.170;2023-09-12T05:36:11;19.40;99.90
50606;DHT22;36557;53.572;10.170;2023-09-12T05:38:37;19.40;99.90
50606;DHT22;36557;53.572;10.170;2023-09-12T05:41:03;19.40;99.90
50606;DHT22;36557;53.572;10.170;2023-09-12T05:43:28;19.40;99.90
50606;DHT22;36557;53.572;10.170;2023-09-12T05:45:55;19.30;99.90
50606;DHT22;36557;53.572;10.170;2023-09-12T05:48:23;19.30;99.90
50606;DHT22;36557;53.572;10.170;2023-09-12T05:50:48;19.30;99.90
50606;DHT22;36557;53.572;10.170;2023-09-12T05:53:14;19.40;99.90
50606;DHT22;36557;53.572;10.170;2023-09-12T05:55:40;19.40;99.90
50606;DHT22;36557;53.572;10.170;2023-09-12T05:58:06;19.30;99.90
50606;DHT22;36557;53.572;10.170;2023-09-12T06:00:32;19.20;99.90
50606;DHT22;36557;53.572;10.170;2023-09-12T06:02:58;19.30;99.90
50606;DHT22;36557;53.572;10.170;2023-09-12T06:05:24;19.30;99.90
50606;DHT22;36557;53.572;10.170;2023-09-12T06:07:50;19.50;99.90
50606;DHT22;36557;53.572;10.170;2023-09-12T06:10:16;19.30;99.90
50606;DHT22;36557;53.572;10.170;2023-09-12T06:12:41;19.40;99.90
50606;DHT22;36557;53.572;10.170;2023-09-12T06:15:07;19.40;99.90
50606;DHT22;36557;53.572;10.170;2023-09-12T06:17:33;19.40;99.90
50606;DHT22;36557;53.572;10.170;2023-09-12T06:19:58;19.40;99.90
50606;DHT22;36557;53.572;10.170;2023-09-12T06:22:24;19.30;99.90
50606;DHT22;36557;53.572;10.170;2023-09-12T06:24:50;19.30;99.90
50606;DHT22;36557;53.572;10.170;2023-09-12T06:27:16;19.50;99.90
50606;DHT22;36557;53.572;10.170;2023-09-12T06:29:48;19.40;99.90
50606;DHT22;36557;53.572;10.170;2023-09-12T06:32:15;19.50;99.90
50606;DHT22;36557;53.572;10.170;2023-09-12T06:34:41;19.40;99.90
50606;DHT22;36557;53.572;10.170;2023-09-12T06:37:08;19.60;99.90
50606;DHT22;36557;53.572;10.170;2023-09-12T06:39:34;19.70;99.90
50606;DHT22;36557;53.572;10.170;2023-09-12T06:41:59;19.70;99.90
50606;DHT22;36557;53.572;10.170;2023-09-12T06:44:25;19.80;99.90
50606;DHT22;36557;53.572;10.170;2023-09-12T06:46:50;19.70;99.90
50606;DHT22;36557;53.572;10.170;2023-09-12T06:49:16;19.90;99.90
50606;DHT22;36557;53.572;10.170;2023-09-12T06:51:42;19.90;99.90
50606;DHT22;36557;53.572;10.170;2023-09-12T06:54:07;19.80;99.90
50606;DHT22;36557;53.572;10.170;2023-09-12T06:56:33;19.90;99.90
50606;DHT22;36557;53.572;10.170;2023-09-12T06:59:03;19.80;99.90
50606;DHT22;36557;53.572;10.170;2023-09-12T07:01:30;19.90;99.90
50606;DHT22;36557;53.572;10.170;2023-09-12T07:03:55;19.90;99.90
50606;DHT22;36557;53.572;10.170;2023-09-12T07:06:22;19.70;99.90
50606;DHT22;36557;53.572;10.170;2023-09-12T07:08:48;19.80;99.90
50606;DHT22;36557;53.572;10.170;2023-09-12T07:11:13;19.80;99.90
50606;DHT22;36557;53.572;10.170;2023-09-12T07:13:39;19.90;99.90
50606;DHT22;36557;53.572;10.170;2023-09-12T07:16:05;19.90;99.90
50606;DHT22;36557;53.572;10.170;2023-09-12T07:18:31;19.80;99.90
50606;DHT22;36557;53.572;10.170;2023-09-12T07:21:00;20.00;99.90
50606;DHT22;36557;53.572;10.170;2023-09-12T07:23:27;19.80;99.90
50606;DHT22;36557;53.572;10.170;2023-09-12T07:25:54;20.00;99.90
50606;DHT22;36557;53.572;10.170;2023-09-12T07:28:21;19.90;99.90
50606;DHT22;36557;53.572;10.170;2023-09-12T07:30:47;20.10;99.90
50606;DHT22;36557;53.572;10.170;2023-09-12T07:33:12;20.00;99.90
50606;DHT22;36557;53.572;10.170;2023-09-12T07:35:38;20.20;99.90
50606;DHT22;36557;53.572;10.170;2023-09-12T07:38:04;20.10;99.90
50606;DHT22;36557;53.572;10.170;2023-09-12T07:40:29;20.20;99.90
50606;DHT22;36557;53.572;10.170;2023-09-12T07:42:55;20.10;99.90
50606;DHT22;36557;53.572;10.170;2023-09-12T07:45:21;20.20;99.90
50606;DHT22;36557;53.572;10.170;2023-09-12T07:47:47;20.10;99.90
50606;DHT22;36557;53.572;10.170;2023-09-12T07:50:13;20.30;99.90
50606;DHT22;36557;53.572;10.170;2023-09-12T07:52:39;20.20;99.90
50606;DHT22;36557;53.572;10.170;2023-09-12T07:55:07;20.10;99.90
50606;DHT22;36557;53.572;10.170;2023-09-12T07:57:33;20.20;99.90
50606;DHT22;36557;53.572;10.170;2023-09-12T07:59:59;20.30;99.90
50606;DHT22;36557;53.572;10.170;2023-09-12T08:02:25;20.30;99.90
50606;DHT22;36557;53.572;10.170;2023-09-12T08:04:51;20.40;99.90
50606;DHT22;36557;53.572;10.170;2023-09-12T08:07:17;20.30;99.90
50606;DHT22;36557;53.572;10.170;2023-09-12T08:09:51;20.50;99.90
50606;DHT22;36557;53.572;10.170;2023-09-12T08:12:18;20.40;99.90
50606;DHT22;36557;53.572;10.170;2023-09-12T08:14:44;20.60;99.90
50606;DHT22;36557;53.572;10.170;2023-09-12T08:17:10;20.70;99.90
50606;DHT22;36557;53.572;10.170;2023-09-12T08:19:36;20.60;99.90
50606;DHT22;36557;53.572;10.170;2023-09-12T08:22:02;20.50;99.90
50606;DHT22;36557;53.572;10.170;2023-09-12T08:24:28;20.80;99.90
50606;DHT22;36557;53.572;10.170;2023-09-12T08:26:53;20.80;99.90
50606;DHT22;36557;53.572;10.170;2023-09-12T08:29:20;20.70;99.90
50606;DHT22;36557;53.572;10.170;2023-09-12T08:31:46;20.60;99.90
50606;DHT22;36557;53.572;10.170;2023-09-12T08:34:12;20.70;99.90
50606;DHT22;36557;53.572;10.170;2023-09-12T08:36:39;20.70;99.90
50606;DHT22;36557;53.572;10.170;2023-09-12T08:39:04;20.60;99.90
50606;DHT22;36557;53.572;10.170;2023-09-12T08:41:33;20.60;99.90
50606;DHT22;36557;53.572;10.170;2023-09-12T08:44:01;20.70;99.90
50606;DHT22;36557;53.572;10.170;2023-09-12T08:46:27;20.80;99.90
50606;DHT22;36557;53.572;10.170;2023-09-12T08:48:56;20.80;99.90
50606;DHT22;36557;53.572;10.170;2023-09-12T08:51:25;20.80;99.90
50606;DHT22;36557;53.572;10.170;2023-09-12T08:53:51;20.70;99.90
50606;DHT22;36557;53.572;10.170;2023-09-12T08:56:18;20.80;99.90
50606;DHT22;36557;53.572;10.170;2023-09-12T08:58:44;20.90;99.90
50606;DHT22;36557;53.572;10.170;2023-09-12T09:01:13;21.20;99.90
50606;DHT22;36557;53.572;10.170;2023-09-12T09:03:41;21.30;99.90
50606;DHT22;36557;53.572;10.170;2023-09-12T09:06:09;21.50;99.90
50606;DHT22;36557;53.572;10.170;2023-09-12T09:08:36;21.20;99.90
50606;DHT22;36557;53.572;10.170;2023-09-12T09:11:02;21.40;99.90
50606;DHT22;36557;53.572;10.170;2023-09-12T09:13:29;21.40;99.90
50606;DHT22;36557;53.572;10.170;2023-09-12T09:16:14;21.50;99.90
50606;DHT22;36557;53.572;10.170;2023-09-12T09:18:59;21.60;99.90
50606;DHT22;36557;53.572;10.170;2023-09-12T09:21:26;21.60;99.90
50606;DHT22;36557;53.572;10.170;2023-09-12T09:23:53;21.70;99.90
50606;DHT22;36557;53.572;10.170;2023-09-12T09:26:20;21.40;99.90
50606;DHT22;36557;53.572;10.170;2023-09-12T09:29:08;21.60;99.90
50606;DHT22;36557;53.572;10.170;2023-09-12T09:31:32;21.60;99.90
50606;DHT22;36557;53.572;10.170;2023-09-12T09:33:59;21.50;99.90
50606;DHT22;36557;53.572;10.170;2023-09-12T09:36:27;21.50;99.90
50606;DHT22;36557;53.572;10.170;2023-09-12T09:38:53;21.70;99.90
50606;DHT22;36557;53.572;10.170;2023-09-12T09:41:22;22.10;99.90
50606;DHT22;36557;53.572;10.170;2023-09-12T09:43:51;22.40;99.90
50606;DHT22;36557;53.572;10.170;2023-09-12T09:46:19;22.60;99.90
50606;DHT22;36557;53.572;10.170;2023-09-12T09:48:50;22.60;99.90
50606;DHT22;36557;53.572;10.170;2023-09-12T09:51:16;22.60;99.90
50606;DHT22;36557;53.572;10.170;2023-09-12T09:53:42;22.40;99.90
50606;DHT22;36557;53.572;10.170;2023-09-12T09:56:10;22.50;99.90
50606;DHT22;36557;53.572;10.170;2023-09-12T09:58:41;22.50;99.90
50606;DHT22;36557;53.572;10.170;2023-09-12T10:01:08;22.80;99.90
50606;DHT22;36557;53.572;10.170;2023-09-12T10:03:36;22.70;99.90
50606;DHT22;36557;53.572;10.170;2023-09-12T10:06:04;22.60;99.90
50606;DHT22;36557;53.572;10.170;2023-09-12T10:08:32;22.50;99.90
50606;DHT22;36557;53.572;10.170;2023-09-12T10:10:57;22.20;99.90
50606;DHT22;36557;53.572;10.170;2023-09-12T10:13:27;21.90;99.90
50606;DHT22;36557;53.572;10.170;2023-09-12T10:15:58;21.90;99.90
50606;DHT22;36557;53.572;10.170;2023-09-12T10:18:25;21.80;99.90
50606;DHT22;36557;53.572;10.170;2023-09-12T10:20:58;21.80;99.90
50606;DHT22;36557;53.572;10.170;2023-09-12T10:23:43;21.50;99.90
50606;DHT22;36557;53.572;10.170;2023-09-12T10:26:13;21.40;99.90
50606;DHT22;36557;53.572;10.170;2023-09-12T10:28:41;21.40;99.90
50606;DHT22;36557;53.572;10.170;2023-09-12T10:31:08;21.40;99.90
50606;DHT22;36557;53.572;10.170;2023-09-12T10:33:35;21.50;99.90
50606;DHT22;36557;53.572;10.170;2023-09-12T10:36:03;21.60;99.90
50606;DHT22;36557;53.572;10.170;2023-09-12T10:38:30;21.60;99.90
50606;DHT22;36557;53.572;10.170;2023-09-12T10:41:00;21.40;99.90
50606;DHT22;36557;53.572;10.170;2023-09-12T10:43:26;21.40;99.90
50606;DHT22;36557;53.572;10.170;2023-09-12T10:45:53;21.40;99.90
50606;DHT22;36557;53.572;10.170;2023-09-12T10:48:20;21.50;99.90
50606;DHT22;36557;53.572;10.170;2023-09-12T10:50:46;21.30;99.90
50606;DHT22;36557;53.572;10.170;2023-09-12T10:53:13;21.40;99.90
50606;DHT22;36557;53.572;10.170;2023-09-12T10:55:40;21.40;99.90
50606;DHT22;36557;53.572;10.170;2023-09-12T10:58:09;21.50;99.90
50606;DHT22;36557;53.572;10.170;2023-09-12T11:00:36;21.50;99.90
50606;DHT22;36557;53.572;10.170;2023-09-12T11:05:59;21.80;99.90
50606;DHT22;36557;53.572;10.170;2023-09-12T11:08:27;21.70;99.90
50606;DHT22;36557;53.572;10.170;2023-09-12T11:11:26;21.60;99.90
50606;DHT22;36557;53.572;10.170;2023-09-12T11:14:05;21.60;99.90
50606;DHT22;36557;53.572;10.170;2023-09-12T11:16:31;21.50;99.90
50606;DHT22;36557;53.572;10.170;2023-09-12T11:19:16;21.70;99.90
50606;DHT22;36557;53.572;10.170;2023-09-12T11:21:47;21.50;99.90
50606;DHT22;36557;53.572;10.170;2023-09-12T11:24:14;21.50;99.90
50606;DHT22;36557;53.572;10.170;2023-09-12T11:27:00;21.60;99.90
50606;DHT22;36557;53.572;10.170;2023-09-12T11:29:46;21.50;99.90
50606;DHT22;36557;53.572;10.170;2023-09-12T11:32:30;21.40;99.90
50606;DHT22;36557;53.572;10.170;2023-09-12T11:34:56;21.30;99.90
50606;DHT22;36557;53.572;10.170;2023-09-12T11:37:27;21.50;99.90
50606;DHT22;36557;53.572;10.170;2023-09-12T11:39:55;21.40;99.90
50606;DHT22;36557;53.572;10.170;2023-09-12T11:42:23;21.40;99.90
50606;DHT22;36557;53.572;10.170;2023-09-12T11:44:51;21.30;99.90
50606;DHT22;36557;53.572;10.170;2023-09-12T11:47:17;21.40;99.90
50606;DHT22;36557;53.572;10.170;2023-09-12T11:49:43;21.30;99.90
50606;DHT22;36557;53.572;10.170;2023-09-12T11:52:13;21.40;99.90
50606;DHT22;36557;53.572;10.170;2023-09-12T11:54:40;21.30;99.90
50606;DHT22;36557;53.572;10.170;2023-09-12T11:57:15;21.30;99.90
50606;DHT22;36557;53.572;10.170;2023-09-12T11:59:42;21.30;99.90
50606;DHT22;36557;53.572;10.170;2023-09-12T12:02:10;21.10;99.90
50606;DHT22;36557;53.572;10.170;2023-09-12T12:04:37;21.10;99.90
50606;DHT22;36557;53.572;10.170;2023-09-12T12:07:04;21.20;99.90
50606;DHT22;36557;53.572;10.170;2023-09-12T12:09:30;21.10;99.90
50606;DHT22;36557;53.572;10.170;2023-09-12T12:11:56;21.20;99.90
50606;DHT22;36557;53.572;10.170;2023-09-12T12:14:26;21.20;99.90
50606;DHT22;36557;53.572;10.170;2023-09-12T12:16:52;21.20;99.90
50606;DHT22;36557;53.572;10.170;2023-09-12T12:19:18;21.10;99.90
50606;DHT22;36557;53.572;10.170;2023-09-12T12:21:45;21.10;99.90
50606;DHT22;36557;53.572;10.170;2023-09-12T12:24:13;21.20;99.90
50606;DHT22;36557;53.572;10.170;2023-09-12T12:26:43;21.10;99.90
50606;DHT22;36557;53.572;10.170;2023-09-12T12:29:10;21.30;99.90
50606;DHT22;36557;53.572;10.170;2023-09-12T12:31:37;21.20;99.90
50606;DHT22;36557;53.572;10.170;2023-09-12T12:34:04;21.10;99.90
50606;DHT22;36557;53.572;10.170;2023-09-12T12:36:30;21.30;99.90
50606;DHT22;36557;53.572;10.170;2023-09-12T12:38:55;21.40;99.90
50606;DHT22;36557;53.572;10.170;2023-09-12T12:41:26;21.40;99.90
50606;DHT22;36557;53.572;10.170;2023-09-12T12:43:52;21.50;99.90
50606;DHT22;36557;53.572;10.170;2023-09-12T12:46:19;21.40;99.90
50606;DHT22;36557;53.572;10.170;2023-09-12T12:48:47;21.60;99.90
50606;DHT22;36557;53.572;10.170;2023-09-12T12:51:24;21.60;99.90
50606;DHT22;36557;53.572;10.170;2023-09-12T12:54:03;21.70;99.90
50606;DHT22;36557;53.572;10.170;2023-09-12T12:56:29;21.90;99.90
50606;DHT22;36557;53.572;10.170;2023-09-12T12:58:57;21.90;99.90
50606;DHT22;36557;53.572;10.170;2023-09-12T13:01:24;22.00;99.90
50606;DHT22;36557;53.572;10.170;2023-09-12T13:03:50;21.90;99.90
50606;DHT22;36557;53.572;10.170;2023-09-12T13:06:17;22.10;99.90
50606;DHT22;36557;53.572;10.170;2023-09-12T13:08:45;21.90;99.90
50606;DHT22;36557;53.572;10.170;2023-09-12T13:11:13;22.10;99.90
50606;DHT22;36557;53.572;10.170;2023-09-12T13:13:40;22.00;99.90
50606;DHT22;36557;53.572;10.170;2023-09-12T13:16:08;21.80;99.90
50606;DHT22;36557;53.572;10.170;2023-09-12T13:18:37;21.80;99.90
50606;DHT22;36557;53.572;10.170;2023-09-12T13:21:03;21.80;99.90
50606;DHT22;36557;53.572;10.170;2023-09-12T13:23:29;21.90;99.90
50606;DHT22;36557;53.572;10.170;2023-09-12T13:25:56;21.90;99.90
50606;DHT22;36557;53.572;10.170;2023-09-12T13:28:22;21.80;99.90
50606;DHT22;36557;53.572;10.170;2023-09-12T13:30:53;21.70;99.90
50606;DHT22;36557;53.572;10.170;2023-09-12T13:33:19;21.50;99.90
50606;DHT22;36557;53.572;10.170;2023-09-12T13:35:46;21.60;99.90
50606;DHT22;36557;53.572;10.170;2023-09-12T13:38:12;21.60;99.90
50606;DHT22;36557;53.572;10.170;2023-09-12T13:40:40;21.80;99.90
50606;DHT22;36557;53.572;10.170;2023-09-12T13:43:07;21.60;99.90
50606;DHT22;36557;53.572;10.170;2023-09-12T13:45:34;21.70;99.90
50606;DHT22;36557;53.572;10.170;2023-09-12T13:48:00;21.90;99.90
50606;DHT22;36557;53.572;10.170;2023-09-12T13:50:27;22.00;99.90
50606;DHT22;36557;53.572;10.170;2023-09-12T13:52:57;22.10;99.90
50606;DHT22;36557;53.572;10.170;2023-09-12T13:55:23;22.00;99.90
50606;DHT22;36557;53.572;10.170;2023-09-12T13:57:49;22.10;99.90
50606;DHT22;36557;53.572;10.170;2023-09-12T14:00:14;22.20;99.90
50606;DHT22;36557;53.572;10.170;2023-09-12T14:02:40;21.90;99.90
50606;DHT22;36557;53.572;10.170;2023-09-12T14:05:06;22.10;99.90
50606;DHT22;36557;53.572;10.170;2023-09-12T14:07:32;22.10;99.90
50606;DHT22;36557;53.572;10.170;2023-09-12T14:09:57;22.20;99.90
50606;DHT22;36557;53.572;10.170;2023-09-12T14:12:24;22.30;99.90
50606;DHT22;36557;53.572;10.170;2023-09-12T14:14:51;22.20;99.90
50606;DHT22;36557;53.572;10.170;2023-09-12T14:17:17;21.90;99.90
50606;DHT22;36557;53.572;10.170;2023-09-12T14:19:43;21.80;99.90
50606;DHT22;36557;53.572;10.170;2023-09-12T14:22:09;21.90;99.90
50606;DHT22;36557;53.572;10.170;2023-09-12T14:24:34;22.00;99.90
50606;DHT22;36557;53.572;10.170;2023-09-12T14:27:00;21.80;99.90
50606;DHT22;36557;53.572;10.170;2023-09-12T14:29:26;21.80;99.90
50606;DHT22;36557;53.572;10.170;2023-09-12T14:31:55;22.00;99.90
50606;DHT22;36557;53.572;10.170;2023-09-12T14:34:26;22.00;99.90
50606;DHT22;36557;53.572;10.170;2023-09-12T14:36:57;21.80;99.90
50606;DHT22;36557;53.572;10.170;2023-09-12T14:39:24;21.90;99.90
50606;DHT22;36557;53.572;10.170;2023-09-12T14:41:50;21.60;99.90
50606;DHT22;36557;53.572;10.170;2023-09-12T14:44:21;21.60;99.90
50606;DHT22;36557;53.572;10.170;2023-09-12T14:46:47;21.70;99.90
50606;DHT22;36557;53.572;10.170;2023-09-12T14:49:13;21.70;99.90
50606;DHT22;36557;53.572;10.170;2023-09-12T14:51:38;21.70;99.90
50606;DHT22;36557;53.572;10.170;2023-09-12T14:54:04;21.60;99.90
50606;DHT22;36557;53.572;10.170;2023-09-12T14:56:31;21.50;99.90
50606;DHT22;36557;53.572;10.170;2023-09-12T14:58:57;21.60;99.90
50606;DHT22;36557;53.572;10.170;2023-09-12T15:01:23;21.70;99.90
50606;DHT22;36557;53.572;10.170;2023-09-12T15:03:52;21.90;99.90
50606;DHT22;36557;53.572;10.170;2023-09-12T15:06:18;21.90;99.90
50606;DHT22;36557;53.572;10.170;2023-09-12T15:08:44;22.20;99.90
50606;DHT22;36557;53.572;10.170;2023-09-12T15:11:10;22.20;99.90
50606;DHT22;36557;53.572;10.170;2023-09-12T15:13:36;22.30;99.90
50606;DHT22;36557;53.572;10.170;2023-09-12T15:16:03;22.50;99.90
50606;DHT22;36557;53.572;10.170;2023-09-12T15:18:29;22.50;99.90
50606;DHT22;36557;53.572;10.170;2023-09-12T15:20:55;22.30;99.90